Time;durP1;ratioP1;P1;durP2;ratioP2;P2;SDS_P1;SDS_P2;PMS_P1;PMS_P2;Temp;Humidity;BMP_temperature;BMP_pressure;BME280_temperature;BME280_humidity;BME280_pressure;Samples;Min_cycle;Max_cycle;Signal;HPM_P1;HPM_P2
2022/07/20 00:00:39;;;;;;;10.95;3.17;;;23.60;98.10;;;;;;5003280;28;20053;-81
2022/07/20 00:03:11;;;;;;;10.43;3.05;;;23.60;97.90;;;;;;5003631;28;20272;-81
2022/07/20 00:05:38;;;;;;;9.02;2.97;;;23.60;97.80;;;;;;5021433;28;20052;-81
2022/07/20 00:08:04;;;;;;;9.80;3.05;;;23.60;97.90;;;;;;5004783;28;20101;-82
2022/07/20 00:13:15;;;;;;;9.80;3.05;;;23.50;97.90;;;;;;5018544;28;20030;-82
2022/07/20 00:15:42;;;;;;;11.57;3.20;;;23.50;97.80;;;;;;5006306;28;20034;-81
2022/07/20 00:18:08;;;;;;;10.07;2.90;;;23.50;97.80;;;;;;5005717;28;20061;-81
2022/07/20 00:20:35;;;;;;;8.73;2.90;;;23.50;97.80;;;;;;5006199;28;20068;-81
2022/07/20 00:23:05;;;;;;;8.88;3.05;;;23.40;97.80;;;;;;5014861;28;20272;-82
2022/07/20 00:25:31;;;;;;;8.73;3.00;;;23.40;97.90;;;;;;5018506;28;20041;-81
2022/07/20 00:27:57;;;;;;;9.85;3.20;;;23.40;97.90;;;;;;4989975;28;20061;-81
2022/07/20 00:30:23;;;;;;;8.13;2.80;;;23.30;97.70;;;;;;5018749;28;20136;-81
2022/07/20 00:32:49;;;;;;;13.50;2.90;;;23.30;97.80;;;;;;5039978;28;20068;-80
2022/07/20 00:35:16;;;;;;;10.77;2.65;;;23.30;97.60;;;;;;5023585;28;20029;-80
2022/07/20 00:37:43;;;;;;;9.93;3.08;;;23.30;97.70;;;;;;5058498;28;20127;-81
2022/07/20 00:40:11;;;;;;;8.05;2.80;;;23.30;97.50;;;;;;5074355;28;20096;-81
2022/07/20 00:42:37;;;;;;;7.63;2.60;;;23.20;97.80;;;;;;5024405;28;20025;-80
2022/07/20 00:45:06;;;;;;;8.45;2.75;;;23.20;97.90;;;;;;5056777;28;20061;-81
2022/07/20 00:47:32;;;;;;;7.85;2.85;;;23.20;97.70;;;;;;5041073;28;20061;-81
2022/07/20 00:49:58;;;;;;;10.98;3.15;;;23.10;97.70;;;;;;5023830;28;20302;-81
2022/07/20 00:52:24;;;;;;;9.52;2.90;;;23.10;98.00;;;;;;5039224;28;20036;-82
2022/07/20 00:54:50;;;;;;;12.13;3.10;;;23.10;98.30;;;;;;5057385;28;20037;-80
2022/07/20 00:57:17;;;;;;;8.68;2.38;;;23.00;98.40;;;;;;5038781;28;20359;-80
2022/07/20 00:59:43;;;;;;;8.80;2.88;;;23.00;99.10;;;;;;5025064;28;20197;-81
2022/07/20 01:02:09;;;;;;;9.18;2.90;;;22.90;99.60;;;;;;5023032;28;20133;-80
2022/07/20 01:04:35;;;;;;;15.73;3.47;;;22.90;99.70;;;;;;5039140;28;20045;-80
2022/07/20 01:07:00;;;;;;;6.55;2.70;;;22.80;99.90;;;;;;5072867;28;20040;-82
2022/07/20 01:09:26;;;;;;;9.35;2.78;;;22.80;99.90;;;;;;5055829;28;20037;-82
2022/07/20 01:11:52;;;;;;;9.18;3.10;;;22.70;99.80;;;;;;5003457;28;20093;-82
2022/07/20 01:14:18;;;;;;;6.70;2.45;;;22.70;99.80;;;;;;5023950;28;20056;-81
2022/07/20 01:16:44;;;;;;;8.00;2.72;;;22.60;99.80;;;;;;5024006;28;20048;-80
2022/07/20 01:19:10;;;;;;;8.25;2.83;;;22.50;99.90;;;;;;5023252;28;20268;-81
2022/07/20 01:21:40;;;;;;;8.88;2.70;;;22.50;99.90;;;;;;5022989;28;20124;-81
2022/07/20 01:24:12;;;;;;;7.20;2.80;;;22.40;99.90;;;;;;5024002;28;20053;-80
2022/07/20 01:26:40;;;;;;;9.77;3.30;;;22.40;99.90;;;;;;5056826;28;20075;-81
2022/07/20 01:29:07;;;;;;;8.65;3.00;;;22.30;99.90;;;;;;5071557;28;20048;-81
2022/07/20 01:31:32;;;;;;;11.93;3.30;;;22.20;99.90;;;;;;5024415;28;20029;-81
2022/07/20 01:33:58;;;;;;;9.02;3.00;;;22.10;99.90;;;;;;5007332;28;20092;-80
2022/07/20 01:36:24;;;;;;;8.13;3.00;;;22.00;99.90;;;;;;5021880;28;20033;-80
2022/07/20 01:38:50;;;;;;;7.03;2.88;;;22.00;99.90;;;;;;5004853;28;20211;-81
2022/07/20 01:41:15;;;;;;;8.60;3.10;;;21.90;99.90;;;;;;5006240;28;20120;-81
2022/07/20 01:43:41;;;;;;;9.13;3.22;;;21.80;99.90;;;;;;5071261;28;20171;-81
2022/07/20 01:46:07;;;;;;;12.05;3.78;;;21.80;99.90;;;;;;5039201;28;20029;-81
2022/07/20 01:48:36;;;;;;;12.15;3.88;;;21.70;99.90;;;;;;5024204;28;20067;-82
2022/07/20 01:51:02;;;;;;;9.10;2.90;;;21.70;99.90;;;;;;5023387;28;20025;-80
2022/07/20 01:53:28;;;;;;;12.55;3.50;;;21.70;99.90;;;;;;5007210;28;20285;-80
2022/07/20 01:55:54;;;;;;;11.85;2.83;;;21.60;99.90;;;;;;5022682;28;20048;-81
2022/07/20 01:58:20;;;;;;;11.45;3.00;;;21.60;99.90;;;;;;5055619;28;20068;-80
2022/07/20 02:00:46;;;;;;;10.02;3.10;;;21.60;99.90;;;;;;5071392;28;20280;-80
2022/07/20 02:03:12;;;;;;;11.68;3.70;;;21.50;99.90;;;;;;5039196;28;20106;-80
2022/07/20 02:05:38;;;;;;;10.43;3.78;;;21.50;99.90;;;;;;5071317;28;20041;-82
2022/07/20 02:08:04;;;;;;;10.18;3.30;;;21.50;99.90;;;;;;5006999;28;20033;-80
2022/07/20 02:10:30;;;;;;;9.65;3.67;;;21.40;99.90;;;;;;5072740;28;20030;-81
2022/07/20 02:12:56;;;;;;;10.90;3.40;;;21.40;99.90;;;;;;5023250;28;20217;-82
2022/07/20 02:18:21;;;;;;;12.07;3.60;;;21.30;99.90;;;;;;5005648;28;20036;-81
2022/07/20 02:20:47;;;;;;;10.23;3.08;;;21.30;99.90;;;;;;5022654;28;20017;-81
2022/07/20 02:23:12;;;;;;;11.35;3.10;;;21.30;99.90;;;;;;5022613;28;20231;-81
2022/07/20 02:25:38;;;;;;;10.40;3.35;;;21.30;99.90;;;;;;5071416;28;20029;-81
2022/07/20 02:28:05;;;;;;;9.32;3.17;;;21.30;99.90;;;;;;5020980;28;20092;-81
2022/07/20 02:30:31;;;;;;;9.85;3.42;;;21.20;99.90;;;;;;5022251;28;20029;-80
2022/07/20 02:32:57;;;;;;;10.50;3.40;;;21.20;99.90;;;;;;5005626;28;20036;-81
2022/07/20 02:35:23;;;;;;;10.32;3.22;;;21.10;99.90;;;;;;5020395;28;20181;-81
2022/07/20 02:37:48;;;;;;;10.40;3.10;;;21.10;99.90;;;;;;5020243;28;20056;-81
2022/07/20 02:40:15;;;;;;;9.25;3.45;;;21.10;99.90;;;;;;5071091;28;20068;-82
2022/07/20 02:42:41;;;;;;;10.95;3.13;;;21.20;99.90;;;;;;5021255;28;20044;-81
2022/07/20 02:45:08;;;;;;;9.98;2.92;;;21.20;99.90;;;;;;5022562;28;20122;-81
2022/07/20 02:47:44;;;;;;;10.40;3.65;;;21.20;99.90;;;;;;5021162;28;20093;-81
2022/07/20 02:50:11;;;;;;;8.68;3.20;;;21.20;99.90;;;;;;5038639;28;20064;-81
2022/07/20 02:52:41;;;;;;;12.20;3.67;;;21.10;99.90;;;;;;5022635;28;20029;-81
2022/07/20 02:55:08;;;;;;;9.55;3.13;;;21.10;99.90;;;;;;5039441;28;20049;-81
2022/07/20 02:57:34;;;;;;;8.80;3.10;;;21.00;99.90;;;;;;5001684;28;20253;-81
2022/07/20 03:00:01;;;;;;;10.98;3.38;;;21.00;99.90;;;;;;5022226;28;20037;-81
2022/07/20 03:02:27;;;;;;;9.40;3.05;;;20.90;99.90;;;;;;5044999;28;20029;-81
2022/07/20 03:04:52;;;;;;;10.73;3.67;;;20.90;99.90;;;;;;5005458;28;20021;-81
2022/07/20 03:07:18;;;;;;;9.10;3.33;;;20.90;99.90;;;;;;5070704;28;20040;-80
2022/07/20 03:09:44;;;;;;;10.88;3.38;;;20.80;99.90;;;;;;5006182;28;20026;-81
2022/07/20 03:12:10;;;;;;;10.50;3.80;;;20.80;99.90;;;;;;5005391;28;20199;-81
2022/07/20 03:14:36;;;;;;;10.35;3.38;;;20.90;99.90;;;;;;5023597;28;20036;-80
2022/07/20 03:17:01;;;;;;;10.32;3.20;;;20.70;99.90;;;;;;5070709;28;20099;-80
2022/07/20 03:19:27;;;;;;;9.13;3.22;;;20.70;99.90;;;;;;5071050;28;20099;-81
2022/07/20 03:21:53;;;;;;;9.40;3.30;;;20.70;99.90;;;;;;5053045;28;20026;-81
2022/07/20 03:24:19;;;;;;;9.55;3.50;;;20.70;99.90;;;;;;5023543;28;20223;-81
2022/07/20 03:26:44;;;;;;;12.60;3.42;;;20.60;99.90;;;;;;5003547;28;20037;-81
2022/07/20 03:29:10;;;;;;;8.77;3.40;;;20.60;99.90;;;;;;5003691;28;20026;-80
2022/07/20 03:31:36;;;;;;;11.55;3.60;;;21.60;99.90;;;;;;5020056;28;20064;-80
2022/07/20 03:34:02;;;;;;;14.50;4.18;;;20.50;99.90;;;;;;5021660;28;20056;-81
2022/07/20 03:36:27;;;;;;;11.43;3.53;;;20.50;99.90;;;;;;5018390;28;20050;-80
2022/07/20 03:38:54;;;;;;;12.05;3.47;;;20.50;99.90;;;;;;5008699;28;20059;-81
2022/07/20 03:41:19;;;;;;;9.30;3.30;;;20.50;99.90;;;;;;5056602;28;20030;-81
2022/07/20 03:43:45;;;;;;;12.05;3.50;;;20.40;99.90;;;;;;5025471;28;20287;-80
2022/07/20 03:46:11;;;;;;;9.30;3.38;;;20.40;99.90;;;;;;5042134;28;20300;-81
2022/07/20 03:48:38;;;;;;;10.15;3.08;;;20.40;99.90;;;;;;5048713;28;20060;-81
2022/07/20 03:51:04;;;;;;;7.80;2.83;;;20.40;99.90;;;;;;5025518;28;20049;-81
2022/07/20 03:53:30;;;;;;;10.35;3.25;;;20.40;99.90;;;;;;5055830;28;20040;-81
2022/07/20 03:55:55;;;;;;;11.10;3.72;;;20.40;99.90;;;;;;5025351;28;20033;-81
2022/07/20 03:58:21;;;;;;;10.85;4.10;;;20.40;99.90;;;;;;5009387;28;20122;-80
2022/07/20 04:00:47;;;;;;;12.13;3.28;;;20.40;99.90;;;;;;5022315;28;20022;-80
2022/07/20 04:03:13;;;;;;;10.35;3.30;;;20.40;99.90;;;;;;5056804;28;20101;-81
2022/07/20 04:05:39;;;;;;;9.25;2.90;;;20.30;99.90;;;;;;5058909;28;20035;-81
2022/07/20 04:08:08;;;;;;;9.43;3.40;;;20.40;99.90;;;;;;5073401;28;20033;-81
2022/07/20 04:10:35;;;;;;;9.70;3.30;;;20.40;99.90;;;;;;5006757;28;20033;-82
2022/07/20 04:13:03;;;;;;;10.10;3.13;;;20.40;99.90;;;;;;5025294;28;20034;-81
2022/07/20 04:15:29;;;;;;;9.77;3.45;;;20.40;99.90;;;;;;5024036;28;20237;-81
2022/07/20 04:17:55;;;;;;;8.30;3.20;;;20.50;99.90;;;;;;5020151;28;20030;-81
2022/07/20 04:20:21;;;;;;;10.65;3.05;;;20.50;99.90;;;;;;5009495;28;20376;-81
2022/07/20 04:22:46;;;;;;;7.43;3.08;;;20.60;99.90;;;;;;5008710;28;20037;-81
2022/07/20 04:25:12;;;;;;;13.30;3.25;;;20.60;99.90;;;;;;5004486;28;20086;-80
2022/07/20 04:27:38;;;;;;;9.13;3.00;;;20.70;99.90;;;;;;5058093;28;20076;-81
2022/07/20 04:30:05;;;;;;;9.43;2.90;;;20.70;99.90;;;;;;5040209;28;20152;-81
2022/07/20 04:32:31;;;;;;;8.98;3.33;;;20.90;99.90;;;;;;5065194;28;20022;-81
2022/07/20 04:34:57;;;;;;;8.18;3.00;;;20.80;99.90;;;;;;5007082;28;20068;-80
2022/07/20 04:37:23;;;;;;;7.80;3.00;;;20.90;99.90;;;;;;5006678;28;20220;-82
2022/07/20 04:39:49;;;;;;;17.25;3.53;;;20.90;99.90;;;;;;5039077;28;20101;-81
2022/07/20 04:42:15;;;;;;;9.15;3.00;;;21.00;99.90;;;;;;5023759;28;20108;-81
2022/07/20 04:44:40;;;;;;;10.90;3.35;;;21.10;99.90;;;;;;5039841;28;20318;-82
2022/07/20 04:47:06;;;;;;;10.00;3.03;;;21.20;99.90;;;;;;5069976;28;20033;-82
2022/07/20 04:49:32;;;;;;;9.52;3.05;;;21.20;99.90;;;;;;5056388;28;20065;-80
2022/07/20 04:51:58;;;;;;;11.45;3.17;;;21.30;99.90;;;;;;5070124;28;20041;-81
2022/07/20 04:54:23;;;;;;;9.65;2.80;;;21.40;99.90;;;;;;5070357;28;20248;-80
2022/07/20 04:56:50;;;;;;;7.78;2.83;;;21.50;99.90;;;;;;5071139;28;20044;-81
2022/07/20 04:59:16;;;;;;;10.75;3.05;;;21.60;99.90;;;;;;5005273;28;20022;-81
2022/07/20 05:01:41;;;;;;;10.55;3.10;;;21.60;99.90;;;;;;5022307;28;20176;-81
2022/07/20 05:04:07;;;;;;;7.95;2.80;;;21.70;99.90;;;;;;5023829;28;20284;-81
2022/07/20 05:06:33;;;;;;;9.35;3.13;;;21.80;99.90;;;;;;5055760;28;20028;-81
2022/07/20 05:08:59;;;;;;;11.43;3.15;;;21.90;99.90;;;;;;5025037;28;20076;-81
2022/07/20 05:11:26;;;;;;;10.45;3.40;;;22.00;99.90;;;;;;5023521;28;20040;-81
2022/07/20 05:13:53;;;;;;;9.65;3.30;;;22.10;99.90;;;;;;5039477;28;20256;-81
2022/07/20 05:16:19;;;;;;;10.45;3.42;;;22.20;99.90;;;;;;5008382;28;21382;-80
2022/07/20 05:18:45;;;;;;;9.88;3.00;;;22.30;99.90;;;;;;5022841;28;20181;-81
2022/07/20 05:21:11;;;;;;;8.95;3.20;;;22.40;99.90;;;;;;5039465;28;20231;-81
2022/07/20 05:23:36;;;;;;;8.73;3.10;;;22.50;99.90;;;;;;5007339;28;20033;-81
2022/07/20 05:26:03;;;;;;;8.23;3.20;;;22.60;99.90;;;;;;5020146;28;20033;-82
2022/07/20 05:28:29;;;;;;;8.32;3.20;;;22.70;99.90;;;;;;5006516;28;20219;-82
2022/07/20 05:30:55;;;;;;;11.27;3.22;;;22.80;99.90;;;;;;5043919;28;20147;-81
2022/07/20 05:33:21;;;;;;;9.30;3.10;;;22.90;99.90;;;;;;5024894;28;20036;-82
2022/07/20 05:35:49;;;;;;;10.68;3.70;;;23.00;99.90;;;;;;5024133;28;20030;-81
2022/07/20 05:38:15;;;;;;;8.55;3.03;;;23.10;99.90;;;;;;5055573;28;20120;-82
2022/07/20 05:40:41;;;;;;;8.38;3.20;;;23.20;99.90;;;;;;5024712;28;20057;-81
2022/07/20 05:43:08;;;;;;;9.85;3.33;;;23.30;99.90;;;;;;5024786;28;20096;-83
2022/07/20 05:45:34;;;;;;;8.73;3.20;;;23.40;99.90;;;;;;5054958;28;20036;-81
2022/07/20 05:47:59;;;;;;;8.68;3.47;;;23.50;99.90;;;;;;5007334;28;20045;-82
2022/07/20 05:50:26;;;;;;;10.88;3.22;;;23.50;99.90;;;;;;5024882;28;20031;-81
2022/07/20 05:52:51;;;;;;;10.88;3.40;;;23.60;99.90;;;;;;5008443;28;20045;-81
2022/07/20 05:55:18;;;;;;;10.20;3.20;;;23.70;99.90;;;;;;5022655;28;20213;-81
2022/07/20 05:57:44;;;;;;;10.18;3.28;;;23.80;99.90;;;;;;5039500;28;20121;-81
2022/07/20 06:00:10;;;;;;;8.73;3.00;;;23.90;99.90;;;;;;5073828;28;20044;-81
2022/07/20 06:02:36;;;;;;;8.63;3.22;;;24.70;99.90;;;;;;5004814;28;20071;-81
2022/07/20 06:05:02;;;;;;;8.75;3.28;;;24.00;99.90;;;;;;5024157;28;20029;-80
2022/07/20 06:07:28;;;;;;;7.57;2.83;;;24.10;99.90;;;;;;5007578;28;20096;-81
2022/07/20 06:09:53;;;;;;;8.75;3.15;;;24.10;99.90;;;;;;5050295;28;20087;-80
2022/07/20 06:12:19;;;;;;;8.25;3.03;;;24.20;99.90;;;;;;5021424;28;20224;-82
2022/07/20 06:14:45;;;;;;;9.80;3.42;;;24.30;99.90;;;;;;5022173;28;20029;-81
2022/07/20 06:17:11;;;;;;;7.95;3.10;;;24.30;99.80;;;;;;5022402;28;20033;-82
2022/07/20 06:19:37;;;;;;;10.43;3.08;;;24.40;99.90;;;;;;5038166;28;20041;-81
2022/07/20 06:22:03;;;;;;;10.00;3.45;;;24.40;99.80;;;;;;5071961;28;20026;-82
2022/07/20 06:24:29;;;;;;;9.38;3.00;;;24.50;99.90;;;;;;5004038;28;20021;-82
2022/07/20 06:26:55;;;;;;;9.48;3.45;;;24.60;99.90;;;;;;5021016;28;20109;-81
2022/07/20 06:29:20;;;;;;;9.65;3.55;;;24.70;99.90;;;;;;5003651;28;20097;-81
2022/07/20 06:31:46;;;;;;;7.72;3.00;;;24.80;99.90;;;;;;5039652;28;20037;-81
2022/07/20 06:34:13;;;;;;;11.52;3.50;;;24.80;99.90;;;;;;5071853;28;20041;-81
2022/07/20 06:36:40;;;;;;;7.93;3.20;;;24.90;99.90;;;;;;5071674;28;20072;-80
2022/07/20 06:39:05;;;;;;;9.35;3.35;;;24.90;99.90;;;;;;5023289;28;20033;-81
2022/07/20 06:41:32;;;;;;;8.90;3.40;;;25.00;99.90;;;;;;5023452;28;20380;-81
2022/07/20 06:43:58;;;;;;;10.80;3.60;;;25.10;99.90;;;;;;5024056;28;20033;-82
2022/07/20 06:46:23;;;;;;;10.32;3.92;;;25.10;99.90;;;;;;5007720;28;20048;-81
2022/07/20 06:48:49;;;;;;;8.35;3.08;;;25.20;99.90;;;;;;5023969;28;20060;-81
2022/07/20 06:51:15;;;;;;;9.90;3.50;;;25.30;99.90;;;;;;5022285;28;20033;-81
2022/07/20 06:53:41;;;;;;;9.07;3.30;;;25.30;99.90;;;;;;5040034;28;20057;-81
2022/07/20 06:56:07;;;;;;;13.80;4.05;;;25.40;99.90;;;;;;5021623;28;20081;-81
2022/07/20 06:58:33;;;;;;;9.50;3.33;;;25.60;99.90;;;;;;5023389;28;20048;-82
2022/07/20 07:00:58;;;;;;;8.10;3.40;;;25.60;99.90;;;;;;5037256;28;20037;-81
2022/07/20 07:03:24;;;;;;;9.40;3.10;;;25.60;99.90;;;;;;5054573;28;20025;-82
2022/07/20 07:05:50;;;;;;;8.68;3.22;;;25.70;99.90;;;;;;5023525;28;20076;-81
2022/07/20 07:08:16;;;;;;;9.27;3.22;;;25.80;99.90;;;;;;5023329;28;20033;-82
2022/07/20 07:10:41;;;;;;;9.30;3.35;;;25.90;99.90;;;;;;5023986;28;20072;-81
2022/07/20 07:13:07;;;;;;;10.52;3.30;;;26.00;99.90;;;;;;5027125;28;20116;-81
2022/07/20 07:15:33;;;;;;;10.68;3.80;;;26.10;99.90;;;;;;5000703;28;20029;-82
2022/07/20 07:17:58;;;;;;;10.70;3.90;;;26.10;99.90;;;;;;5077027;28;20209;-81
2022/07/20 07:20:24;;;;;;;10.35;3.35;;;26.20;99.90;;;;;;5027325;28;20033;-81
2022/07/20 07:22:50;;;;;;;8.82;3.75;;;26.30;99.90;;;;;;5058392;28;20681;-82
2022/07/20 07:25:16;;;;;;;10.15;3.17;;;26.40;99.90;;;;;;5010918;28;20075;-82
2022/07/20 07:27:41;;;;;;;9.52;3.47;;;26.50;99.90;;;;;;5010682;28;20083;-82
2022/07/20 07:30:08;;;;;;;10.60;3.53;;;26.60;99.90;;;;;;5010687;28;20029;-82
2022/07/20 07:32:33;;;;;;;10.02;3.53;;;26.70;99.90;;;;;;5006204;28;20101;-82
2022/07/20 07:34:59;;;;;;;11.15;3.63;;;26.80;99.90;;;;;;5057644;28;20065;-81
2022/07/20 07:37:25;;;;;;;10.05;3.60;;;26.80;99.90;;;;;;5010005;28;20065;-81
2022/07/20 07:39:51;;;;;;;10.40;3.60;;;26.90;99.90;;;;;;5027143;28;20065;-81
2022/07/20 07:42:17;;;;;;;10.10;3.72;;;26.90;99.90;;;;;;5009967;28;20044;-81
2022/07/20 07:44:42;;;;;;;8.20;3.17;;;27.00;99.90;;;;;;5010750;28;20102;-81
2022/07/20 07:47:08;;;;;;;8.77;3.80;;;27.20;99.90;;;;;;5023589;28;20052;-82
2022/07/20 07:49:34;;;;;;;10.77;3.90;;;27.20;99.90;;;;;;5059156;28;20018;-83
2022/07/20 07:52:00;;;;;;;11.95;3.88;;;27.30;99.90;;;;;;5076315;28;20147;-80
2022/07/20 07:54:26;;;;;;;10.18;4.10;;;27.30;99.90;;;;;;5006577;28;20135;-82
2022/07/20 07:56:51;;;;;;;10.18;3.65;;;27.50;99.90;;;;;;5071888;28;20045;-82
2022/07/20 07:59:17;;;;;;;10.43;4.15;;;27.40;99.90;;;;;;5026620;28;20033;-80
2022/07/20 08:01:43;;;;;;;9.38;3.78;;;27.50;99.90;;;;;;5038953;28;20033;-82
2022/07/20 08:04:09;;;;;;;10.88;4.22;;;27.50;99.70;;;;;;5008757;28;20148;-81
2022/07/20 08:06:36;;;;;;;10.18;4.38;;;27.60;99.90;;;;;;5008602;28;20060;-83
2022/07/20 08:09:03;;;;;;;12.77;4.53;;;28.20;99.90;;;;;;5026536;28;20088;-82
2022/07/20 08:11:29;;;;;;;12.93;5.13;;;27.70;99.90;;;;;;5039777;28;20176;-82
2022/07/20 08:13:55;;;;;;;9.93;4.53;;;27.70;99.90;;;;;;5026590;28;20029;-81
2022/07/20 08:16:21;;;;;;;9.95;4.43;;;27.70;99.90;;;;;;5024104;28;20041;-81
2022/07/20 08:18:46;;;;;;;11.77;4.80;;;27.80;99.90;;;;;;5075005;28;20292;-81
2022/07/20 08:21:12;;;;;;;10.68;4.40;;;27.90;99.90;;;;;;5024260;28;20339;-81
2022/07/20 08:23:38;;;;;;;10.55;4.43;;;27.90;99.90;;;;;;5025283;28;20057;-80
2022/07/20 08:26:03;;;;;;;13.57;4.93;;;28.00;99.90;;;;;;5024851;28;20107;-82
2022/07/20 08:28:29;;;;;;;15.77;5.53;;;28.00;99.90;;;;;;5026609;28;20041;-81
2022/07/20 08:31:00;;;;;;;11.88;5.47;;;28.00;99.90;;;;;;5010747;28;20089;-83
2022/07/20 08:33:26;;;;;;;14.63;5.75;;;28.20;99.90;;;;;;5025468;28;20026;-83
2022/07/20 08:35:52;;;;;;;12.70;6.43;;;28.30;99.90;;;;;;5026104;28;20193;-82
2022/07/20 08:38:17;;;;;;;12.40;6.40;;;28.30;99.90;;;;;;5009658;28;20312;-83
2022/07/20 08:40:43;;;;;;;12.25;6.47;;;28.30;99.90;;;;;;5024208;28;20030;-83
2022/07/20 08:43:10;;;;;;;14.13;6.57;;;28.40;99.90;;;;;;5021273;28;20033;-82
2022/07/20 08:45:36;;;;;;;12.98;6.80;;;28.40;99.90;;;;;;5009657;28;20030;-82
2022/07/20 08:48:06;;;;;;;15.10;6.68;;;28.50;99.90;;;;;;5059067;28;20033;-83
2022/07/20 08:50:32;;;;;;;12.68;7.00;;;28.60;99.90;;;;;;5024687;28;20044;-83
2022/07/20 08:52:59;;;;;;;17.08;7.40;;;28.60;99.90;;;;;;5024778;28;20044;-82
2022/07/20 08:55:27;;;;;;;13.82;7.15;;;28.60;99.90;;;;;;5025677;28;20114;-83
2022/07/20 08:57:53;;;;;;;14.27;8.18;;;28.60;99.90;;;;;;5009915;28;20037;-83
2022/07/20 09:00:20;;;;;;;16.73;8.88;;;28.60;99.90;;;;;;5041976;28;20029;-82
2022/07/20 09:03:01;;;;;;;16.58;8.50;;;28.70;99.90;;;;;;5025856;28;20041;-83
2022/07/20 09:05:29;;;;;;;18.38;9.20;;;28.70;99.90;;;;;;5023522;28;20045;-82
2022/07/20 09:07:57;;;;;;;19.52;9.88;;;28.80;99.90;;;;;;5008266;28;20187;-83
2022/07/20 09:10:29;;;;;;;20.08;10.18;;;28.80;99.90;;;;;;5075119;28;20036;-82
2022/07/20 09:13:04;;;;;;;17.13;10.02;;;28.80;99.90;;;;;;5041789;28;20041;-82
2022/07/20 09:15:30;;;;;;;18.73;10.95;;;28.90;99.90;;;;;;5040986;28;20056;-83
2022/07/20 09:18:06;;;;;;;20.50;10.80;;;28.90;99.90;;;;;;5025287;28;20069;-83
2022/07/20 09:20:33;;;;;;;20.58;10.77;;;29.00;99.90;;;;;;5025266;28;20084;-82
2022/07/20 09:23:23;;;;;;;19.55;11.75;;;29.10;99.90;;;;;;5025192;28;20091;-82
2022/07/20 09:26:05;;;;;;;20.92;12.38;;;29.00;99.90;;;;;;5038321;28;20056;-82
2022/07/20 09:28:37;;;;;;;22.67;12.85;;;29.00;99.90;;;;;;5058449;28;20298;-83
2022/07/20 09:31:08;;;;;;;22.42;12.43;;;29.00;99.90;;;;;;5025027;28;20273;-82
2022/07/20 09:33:34;;;;;;;21.88;13.80;;;29.10;99.90;;;;;;5040846;28;20056;-83
2022/07/20 09:36:06;;;;;;;20.15;13.10;;;29.10;99.90;;;;;;5008096;28;20037;-84
2022/07/20 09:38:41;;;;;;;22.50;13.65;;;29.20;99.90;;;;;;5023072;28;20088;-82
2022/07/20 09:41:26;;;;;;;24.10;12.85;;;29.10;99.90;;;;;;5054967;28;20079;-84
2022/07/20 09:43:54;;;;;;;27.00;13.95;;;29.10;99.90;;;;;;5041661;28;20040;-83
2022/07/20 09:46:22;;;;;;;21.27;13.32;;;29.00;99.90;;;;;;5004605;28;20265;-82
2022/07/20 09:48:50;;;;;;;23.73;14.88;;;29.10;99.90;;;;;;5057581;28;20063;-82
2022/07/20 09:51:24;;;;;;;21.95;14.52;;;29.10;99.90;;;;;;5023342;28;20133;-85
2022/07/20 09:53:53;;;;;;;24.17;14.68;;;29.10;99.90;;;;;;5024017;28;20279;-83
2022/07/20 09:56:20;;;;;;;22.00;13.70;;;29.10;99.90;;;;;;5023619;28;20048;-83
2022/07/20 09:58:50;;;;;;;21.85;14.23;;;29.10;99.90;;;;;;5052756;28;20033;-85
2022/07/20 10:01:28;;;;;;;22.50;14.10;;;29.10;99.90;;;;;;5024817;28;20542;-82
2022/07/20 10:03:56;;;;;;;22.60;14.38;;;29.10;99.90;;;;;;5022288;28;20025;-84
2022/07/20 10:06:25;;;;;;;22.48;14.15;;;29.10;99.90;;;;;;5006296;28;20025;-84
2022/07/20 10:08:53;;;;;;;23.23;14.18;;;29.00;99.90;;;;;;5055257;28;20037;-86
2022/07/20 10:11:20;;;;;;;20.98;14.00;;;29.00;99.90;;;;;;5022160;28;20064;-84
2022/07/20 10:13:48;;;;;;;18.38;13.77;;;29.00;99.90;;;;;;5057386;28;20036;-85
2022/07/20 10:16:38;;;;;;;21.48;13.25;;;29.10;99.90;;;;;;5040635;28;20079;-82
2022/07/20 10:19:06;;;;;;;21.77;13.35;;;29.20;99.90;;;;;;5022858;28;20021;-83
2022/07/20 10:21:47;;;;;;;20.00;12.98;;;29.20;99.90;;;;;;5007352;28;20076;-83
2022/07/20 10:24:19;;;;;;;21.30;12.85;;;29.30;99.90;;;;;;5070773;28;20045;-83
2022/07/20 10:27:16;;;;;;;21.03;13.73;;;29.40;99.90;;;;;;5056703;28;20030;-84
2022/07/20 10:29:50;;;;;;;21.33;13.45;;;29.40;99.90;;;;;;5016301;28;20287;-83
2022/07/20 10:32:23;;;;;;;19.90;13.13;;;29.40;99.90;;;;;;5016347;28;20040;-82
2022/07/20 10:34:57;;;;;;;20.20;12.98;;;29.30;99.90;;;;;;5037975;28;20321;-83
2022/07/20 10:37:36;;;;;;;22.35;13.02;;;29.40;99.90;;;;;;5027134;28;20452;-85
2022/07/20 10:40:05;;;;;;;20.40;12.23;;;29.40;99.90;;;;;;5071030;28;20216;-84
2022/07/20 10:42:37;;;;;;;22.27;12.48;;;29.40;99.90;;;;;;5054204;28;20060;-84
2022/07/20 10:45:25;;;;;;;22.05;11.57;;;29.50;99.90;;;;;;5056809;28;20033;-84
2022/07/20 10:47:53;;;;;;;20.83;12.02;;;29.60;99.90;;;;;;5020829;28;20026;-83
2022/07/20 10:50:20;;;;;;;17.90;11.40;;;29.60;99.90;;;;;;5040252;28;20255;-82
2022/07/20 10:52:48;;;;;;;15.90;10.05;;;29.60;99.90;;;;;;5039594;28;20083;-84
2022/07/20 10:55:32;;;;;;;17.38;10.57;;;29.50;99.90;;;;;;5023763;28;20041;-85
2022/07/20 10:57:58;;;;;;;20.75;11.52;;;29.40;99.90;;;;;;5038998;28;20339;-84
2022/07/20 11:00:34;;;;;;;16.58;10.73;;;29.50;99.90;;;;;;5006610;28;20026;-84
2022/07/20 11:03:02;;;;;;;20.20;10.50;;;29.60;99.90;;;;;;5023789;28;20330;-84
2022/07/20 11:05:28;;;;;;;20.15;11.63;;;29.60;99.90;;;;;;5023290;28;20084;-84
2022/07/20 11:07:54;;;;;;;18.27;9.82;;;29.70;99.90;;;;;;5004889;28;20304;-85
2022/07/20 11:10:26;;;;;;;16.35;9.85;;;29.70;99.90;;;;;;5005263;28;20049;-85
2022/07/20 11:12:58;;;;;;;16.15;9.43;;;29.80;99.40;;;;;;5023732;28;20029;-86
2022/07/20 11:15:39;;;;;;;24.00;9.13;;;29.60;99.20;;;;;;5021107;28;20088;-83
2022/07/20 11:18:09;;;;;;;18.38;9.05;;;29.60;99.10;;;;;;5022127;28;20117;-87
2022/07/20 11:20:43;;;;;;;20.50;8.55;;;29.50;98.40;;;;;;5001494;28;20080;-86
2022/07/20 11:23:09;;;;;;;16.02;8.10;;;29.60;98.60;;;;;;5086539;28;20098;-85
2022/07/20 11:26:08;;;;;;;16.38;8.30;;;29.60;97.40;;;;;;5004475;28;20104;-85
2022/07/20 11:28:36;;;;;;;15.98;7.82;;;29.70;97.50;;;;;;5048986;28;20042;-85
2022/07/20 11:31:05;;;;;;;15.63;8.10;;;29.70;97.90;;;;;;5022540;28;20041;-85
2022/07/20 11:33:34;;;;;;;17.23;7.82;;;29.80;98.10;;;;;;5040238;28;20052;-85
2022/07/20 11:36:03;;;;;;;14.32;7.70;;;29.90;98.10;;;;;;5022725;28;20052;-83
2022/07/20 11:38:40;;;;;;;14.90;7.57;;;30.00;98.20;;;;;;5023163;28;20049;-84
2022/07/20 11:41:11;;;;;;;15.57;7.85;;;30.00;98.30;;;;;;5022557;28;20029;-86
2022/07/20 11:43:37;;;;;;;16.70;8.60;;;30.30;98.20;;;;;;5023652;28;20036;-84
2022/07/20 11:46:14;;;;;;;15.85;8.48;;;30.10;98.70;;;;;;5021855;28;20037;-84
2022/07/20 11:48:42;;;;;;;14.30;7.65;;;30.20;99.20;;;;;;5019363;28;20048;-83
2022/07/20 11:51:09;;;;;;;17.50;7.75;;;30.20;99.20;;;;;;5072163;28;20264;-84
2022/07/20 11:53:41;;;;;;;14.50;7.47;;;30.30;99.60;;;;;;5023112;28;20040;-83
2022/07/20 11:56:20;;;;;;;13.57;7.38;;;30.40;99.60;;;;;;5022764;28;20049;-84
2022/07/20 11:58:50;;;;;;;12.25;7.15;;;30.30;99.40;;;;;;5027295;28;20037;-84
2022/07/20 12:01:23;;;;;;;17.52;7.95;;;30.40;98.80;;;;;;5025373;28;20029;-83
2022/07/20 12:04:10;;;;;;;12.65;7.15;;;30.30;98.80;;;;;;5027003;28;20136;-83
2022/07/20 12:06:38;;;;;;;13.75;7.43;;;30.40;98.70;;;;;;5015893;28;20049;-83
2022/07/20 12:09:13;;;;;;;12.68;7.32;;;30.40;98.30;;;;;;5026813;28;20029;-82
2022/07/20 12:11:59;;;;;;;14.18;7.63;;;30.40;98.60;;;;;;5026980;28;20061;-82
2022/07/20 12:14:26;;;;;;;13.90;7.90;;;30.40;98.10;;;;;;5043183;28;20124;-83
2022/07/20 12:16:53;;;;;;;13.00;7.15;;;30.40;97.80;;;;;;5023532;28;20141;-83
2022/07/20 12:19:19;;;;;;;15.10;7.45;;;30.40;97.60;;;;;;5026384;28;20278;-84
2022/07/20 12:21:46;;;;;;;13.13;7.72;;;30.40;97.80;;;;;;5009614;28;20064;-83
2022/07/20 12:24:12;;;;;;;15.80;8.10;;;30.50;97.80;;;;;;5025194;28;20056;-84
2022/07/20 12:26:38;;;;;;;12.93;6.57;;;30.50;97.40;;;;;;5064620;28;20033;-83
2022/07/20 12:29:21;;;;;;;11.93;6.80;;;30.60;97.50;;;;;;5026222;28;20033;-81
2022/07/20 12:32:01;;;;;;;13.38;6.13;;;30.70;97.50;;;;;;5073057;28;20041;-81
2022/07/20 12:34:29;;;;;;;12.68;6.07;;;30.70;97.10;;;;;;5024633;28;20045;-83
2022/07/20 12:36:55;;;;;;;13.60;6.43;;;30.70;97.10;;;;;;5007585;28;20100;-82
2022/07/20 12:39:49;;;;;;;9.75;5.80;;;30.70;97.00;;;;;;5059158;28;20076;-83
2022/07/20 12:42:26;;;;;;;12.98;5.97;;;30.70;96.80;;;;;;5025538;28;20056;-83
2022/07/20 12:45:00;;;;;;;12.18;5.95;;;30.70;96.90;;;;;;5042638;28;20037;-83
2022/07/20 12:47:27;;;;;;;15.30;6.00;;;30.70;96.10;;;;;;5041632;28;20105;-83